createdAt,value
2023-03-29T00:00:28.000Z,5.8
2023-03-29T00:01:44.000Z,5.9
2023-03-29T00:02:59.000Z,5.8
2023-03-29T00:04:16.000Z,5.8
2023-03-29T00:05:32.000Z,5.9
2023-03-29T00:06:48.000Z,5.8
2023-03-29T00:08:04.000Z,5.8
2023-03-29T00:09:21.000Z,5.8
2023-03-29T00:10:37.000Z,5.8
2023-03-29T00:11:53.000Z,5.8
2023-03-29T00:13:09.000Z,5.8
2023-03-29T00:14:26.000Z,5.8
2023-03-29T00:15:42.000Z,5.8
2023-03-29T00:16:58.000Z,5.8
2023-03-29T00:18:14.000Z,5.8
2023-03-29T00:19:30.000Z,5.8
2023-03-29T00:20:46.000Z,5.8
2023-03-29T00:22:02.000Z,5.8
2023-03-29T00:23:18.000Z,5.8
2023-03-29T00:24:34.000Z,5.8
2023-03-29T00:25:51.000Z,5.8
2023-03-29T00:27:07.000Z,5.8
2023-03-29T00:28:23.000Z,5.8
2023-03-29T00:29:39.000Z,5.9
2023-03-29T00:30:56.000Z,5.8
2023-03-29T00:32:12.000Z,5.9
2023-03-29T00:33:28.000Z,5.9
2023-03-29T00:34:44.000Z,5.9
2023-03-29T00:36:00.000Z,5.9
2023-03-29T00:37:16.000Z,5.9
2023-03-29T00:38:32.000Z,5.9
2023-03-29T00:39:48.000Z,5.8
2023-03-29T00:41:05.000Z,5.8
2023-03-29T00:42:21.000Z,5.8
2023-03-29T00:43:37.000Z,5.7
2023-03-29T00:44:53.000Z,5.7
2023-03-29T00:46:09.000Z,5.6
2023-03-29T00:47:26.000Z,5.6
2023-03-29T00:48:42.000Z,5.6
2023-03-29T00:49:58.000Z,5.6
2023-03-29T00:51:14.000Z,5.7
2023-03-29T00:52:30.000Z,5.7
2023-03-29T00:53:46.000Z,5.6
2023-03-29T00:55:02.000Z,5.6
2023-03-29T00:56:18.000Z,5.6
2023-03-29T00:57:35.000Z,5.6
2023-03-29T00:58:51.000Z,5.6
2023-03-29T01:00:07.000Z,5.6
2023-03-29T01:01:23.000Z,5.5
2023-03-29T01:02:40.000Z,5.5
2023-03-29T01:03:56.000Z,5.5
2023-03-29T01:05:12.000Z,5.6
2023-03-29T01:06:28.000Z,5.6
2023-03-29T01:07:44.000Z,5.6
2023-03-29T01:09:00.000Z,5.6
2023-03-29T01:10:16.000Z,5.6
2023-03-29T01:11:32.000Z,5.7
2023-03-29T01:12:48.000Z,5.7
2023-03-29T01:14:05.000Z,5.7
2023-03-29T01:15:21.000Z,5.6
2023-03-29T01:16:37.000Z,5.6
2023-03-29T01:17:53.000Z,5.6
2023-03-29T01:19:10.000Z,5.6
2023-03-29T01:20:26.000Z,5.6
2023-03-29T01:21:42.000Z,5.6
2023-03-29T01:22:58.000Z,5.6
2023-03-29T01:24:15.000Z,5.6
2023-03-29T01:25:30.000Z,5.7
2023-03-29T01:26:46.000Z,5.7
2023-03-29T01:28:02.000Z,5.6
2023-03-29T01:29:18.981Z,5.6
2023-03-29T01:30:35.000Z,5.6
2023-03-29T01:31:51.000Z,5.6
2023-03-29T01:33:07.000Z,5.6
2023-03-29T01:34:23.000Z,5.6
2023-03-29T01:35:40.000Z,5.7
2023-03-29T01:36:56.000Z,5.7
2023-03-29T01:38:12.000Z,5.6
2023-03-29T01:39:28.000Z,5.6
2023-03-29T01:40:45.000Z,5.6
2023-03-29T01:42:00.000Z,5.6
2023-03-29T01:43:16.000Z,5.7
2023-03-29T01:44:32.000Z,5.7
2023-03-29T01:45:49.000Z,5.6
2023-03-29T01:47:05.000Z,5.6
2023-03-29T01:48:21.000Z,5.6
2023-03-29T01:49:37.000Z,5.5
2023-03-29T01:50:53.000Z,5.6
2023-03-29T01:52:10.000Z,5.6
2023-03-29T01:53:26.000Z,5.6
2023-03-29T01:54:42.000Z,5.6
2023-03-29T01:55:58.000Z,5.6
2023-03-29T01:57:15.000Z,5.6
2023-03-29T01:58:30.000Z,5.6
2023-03-29T01:59:46.000Z,5.6
2023-03-29T02:01:02.000Z,5.6
2023-03-29T02:02:19.000Z,5.6
2023-03-29T02:03:35.000Z,5.7
2023-03-29T02:04:51.000Z,5.7
2023-03-29T02:06:06.000Z,5.7
2023-03-29T02:07:23.000Z,5.7
2023-03-29T02:08:39.000Z,5.6
2023-03-29T02:09:55.000Z,5.6
2023-03-29T02:11:11.000Z,5.6
2023-03-29T02:12:28.000Z,5.6
2023-03-29T02:13:44.000Z,5.7
2023-03-29T02:15:00.000Z,5.7
2023-03-29T02:16:16.000Z,5.7
2023-03-29T02:17:32.000Z,5.7
2023-03-29T02:18:49.000Z,5.8
2023-03-29T02:20:05.000Z,5.8
2023-03-29T02:21:21.000Z,5.8
2023-03-29T02:22:36.000Z,5.7
2023-03-29T02:23:53.000Z,5.7
2023-03-29T02:25:09.000Z,5.7
2023-03-29T02:26:25.000Z,5.7
2023-03-29T02:27:41.000Z,5.7
2023-03-29T02:28:58.000Z,5.7
2023-03-29T02:30:14.000Z,5.7
2023-03-29T02:31:30.000Z,5.8
2023-03-29T02:32:46.000Z,5.8
2023-03-29T02:34:02.000Z,5.8
2023-03-29T02:35:19.000Z,5.8
2023-03-29T02:36:35.000Z,5.8
2023-03-29T02:37:51.000Z,5.8
2023-03-29T02:39:06.000Z,5.7
2023-03-29T02:40:23.000Z,5.7
2023-03-29T02:41:39.000Z,5.7
2023-03-29T02:42:55.000Z,5.7
2023-03-29T02:44:11.000Z,5.7
2023-03-29T02:45:28.000Z,5.7
2023-03-29T02:46:44.000Z,5.7
2023-03-29T02:48:00.000Z,5.7
2023-03-29T02:49:16.000Z,5.7
2023-03-29T02:50:33.000Z,5.7
2023-03-29T02:51:49.000Z,5.7
2023-03-29T02:53:05.000Z,5.7
2023-03-29T02:54:21.000Z,5.7
2023-03-29T02:55:37.000Z,5.7
2023-03-29T02:56:53.000Z,5.7
2023-03-29T02:58:09.000Z,5.6
2023-03-29T02:59:25.000Z,5.6
2023-03-29T03:00:41.000Z,5.6
2023-03-29T03:01:58.000Z,5.6
2023-03-29T03:03:14.000Z,5.6
2023-03-29T03:04:30.000Z,5.7
2023-03-29T03:05:46.000Z,5.7
2023-03-29T03:07:03.000Z,5.8
2023-03-29T03:08:19.000Z,5.8
2023-03-29T03:09:35.000Z,5.8
2023-03-29T03:10:51.000Z,5.7
2023-03-29T03:12:07.000Z,5.7
2023-03-29T03:13:23.000Z,5.7
2023-03-29T03:14:39.000Z,5.7
2023-03-29T03:15:55.000Z,5.7
2023-03-29T03:17:12.000Z,5.7
2023-03-29T03:18:28.000Z,5.7
2023-03-29T03:19:44.000Z,5.7
2023-03-29T03:21:00.000Z,5.7
2023-03-29T03:22:16.000Z,5.7
2023-03-29T03:23:33.000Z,5.7
2023-03-29T03:24:49.000Z,5.7
2023-03-29T03:26:05.000Z,5.7
2023-03-29T03:27:21.000Z,5.7
2023-03-29T03:28:37.000Z,5.7
2023-03-29T03:29:53.000Z,5.7
2023-03-29T03:31:09.000Z,5.7
2023-03-29T03:32:25.000Z,5.7
2023-03-29T03:33:42.000Z,5.7
2023-03-29T03:34:58.000Z,5.7
2023-03-29T03:36:14.000Z,5.7
2023-03-29T03:37:30.000Z,5.7
2023-03-29T03:38:46.000Z,5.7
2023-03-29T03:40:03.000Z,5.7
2023-03-29T03:41:19.000Z,5.7
2023-03-29T03:42:35.000Z,5.8
2023-03-29T03:43:51.000Z,5.8
2023-03-29T03:45:07.000Z,5.8
2023-03-29T03:46:23.000Z,5.8
2023-03-29T03:47:39.000Z,5.8
2023-03-29T03:48:55.000Z,5.9
2023-03-29T03:50:12.000Z,5.8
2023-03-29T03:51:28.000Z,5.9
2023-03-29T03:52:44.000Z,5.9
2023-03-29T03:54:00.000Z,5.9
2023-03-29T03:56:33.000Z,5.9
2023-03-29T03:57:49.000Z,5.9
2023-03-29T03:59:05.000Z,5.9
2023-03-29T04:00:21.000Z,5.9
2023-03-29T04:01:37.000Z,6
2023-03-29T04:02:53.000Z,6
2023-03-29T04:04:09.000Z,6
2023-03-29T04:05:25.000Z,6
2023-03-29T04:06:42.000Z,6
2023-03-29T04:07:58.000Z,6.1
2023-03-29T04:09:14.000Z,6.1
2023-03-29T04:10:30.000Z,6.1
2023-03-29T04:11:47.000Z,6.1
2023-03-29T04:13:03.000Z,6.1
2023-03-29T04:14:19.000Z,6.1
2023-03-29T04:15:35.000Z,6.1
2023-03-29T04:16:52.000Z,6.1
2023-03-29T04:18:07.000Z,6.1
2023-03-29T04:19:23.000Z,6.1
2023-03-29T04:20:39.000Z,6.1
2023-03-29T04:21:56.000Z,6.1
2023-03-29T04:23:12.000Z,6.1
2023-03-29T04:24:28.000Z,6.1
2023-03-29T04:25:44.000Z,6.1
2023-03-29T04:27:00.000Z,6.1
2023-03-29T04:28:17.000Z,6.1
2023-03-29T04:29:33.000Z,6.1
2023-03-29T04:30:49.000Z,6.1
2023-03-29T04:32:05.000Z,6.1
2023-03-29T04:33:22.000Z,6.1
2023-03-29T04:34:37.000Z,6.2
2023-03-29T04:35:53.000Z,6.2
2023-03-29T04:37:09.000Z,6.2
2023-03-29T04:38:26.000Z,6.2
2023-03-29T04:39:42.000Z,6.2
2023-03-29T04:42:14.000Z,6.2
2023-03-29T04:43:31.000Z,6.2
2023-03-29T04:44:47.000Z,6.3
2023-03-29T04:46:03.000Z,6.3
2023-03-29T04:47:19.000Z,6.3
2023-03-29T04:48:35.000Z,6.3
2023-03-29T04:49:52.000Z,6.3
2023-03-29T04:51:07.000Z,6.3
2023-03-29T04:52:23.000Z,6.3
2023-03-29T04:53:39.000Z,6.3
2023-03-29T04:54:56.000Z,6.3
2023-03-29T04:57:28.000Z,6.3
2023-03-29T04:58:44.000Z,6.4
2023-03-29T05:00:01.000Z,6.4
2023-03-29T05:01:17.000Z,6.4
2023-03-29T05:02:33.000Z,6.4
2023-03-29T05:03:49.000Z,6.5
2023-03-29T05:05:06.000Z,6.5
2023-03-29T05:06:22.000Z,6.5
2023-03-29T05:07:37.000Z,6.5
2023-03-29T05:08:53.000Z,6.6
2023-03-29T05:10:09.000Z,6.6
2023-03-29T05:11:26.000Z,6.7
2023-03-29T05:12:42.000Z,6.7
2023-03-29T05:13:58.000Z,6.7
2023-03-29T05:15:14.000Z,6.7
2023-03-29T05:16:31.000Z,6.7
2023-03-29T05:17:47.000Z,6.7
2023-03-29T05:20:19.000Z,6.7
2023-03-29T05:21:36.000Z,6.7
2023-03-29T05:22:52.000Z,6.7
2023-03-29T05:24:07.000Z,6.7
2023-03-29T05:25:23.000Z,6.7
2023-03-29T05:26:40.000Z,6.7
2023-03-29T05:27:56.000Z,6.7
2023-03-29T05:29:12.000Z,6.7
2023-03-29T05:30:28.000Z,6.7
2023-03-29T05:31:44.000Z,6.7
2023-03-29T05:33:01.000Z,6.7
2023-03-29T05:34:17.000Z,6.7
2023-03-29T05:35:33.000Z,6.7
2023-03-29T05:36:49.000Z,6.6
2023-03-29T05:38:06.000Z,6.6
2023-03-29T05:39:22.000Z,6.6
2023-03-29T05:40:37.000Z,6.6
2023-03-29T05:41:53.000Z,6.6
2023-03-29T05:43:10.000Z,6.6
2023-03-29T05:44:26.000Z,6.6
2023-03-29T05:45:42.000Z,6.5
2023-03-29T05:48:15.000Z,6.5
2023-03-29T05:49:31.000Z,6.4
2023-03-29T05:50:47.000Z,6.4
2023-03-29T05:52:03.000Z,6.4
2023-03-29T05:53:19.000Z,6.4
2023-03-29T05:54:36.000Z,6.4
2023-03-29T05:55:52.000Z,6.5
2023-03-29T05:57:07.000Z,6.5
2023-03-29T05:58:23.000Z,6.5
2023-03-29T05:59:40.000Z,6.5
2023-03-29T06:00:56.000Z,6.6
2023-03-29T06:02:12.000Z,6.7
2023-03-29T06:03:28.000Z,6.7
2023-03-29T06:04:45.000Z,6.7
2023-03-29T06:06:01.000Z,6.7
2023-03-29T06:07:17.000Z,6.7
2023-03-29T06:08:33.000Z,6.7
2023-03-29T06:11:06.000Z,6.7
2023-03-29T06:13:38.000Z,6.7
2023-03-29T06:14:53.000Z,6.7
2023-03-29T06:16:09.000Z,6.8
2023-03-29T06:18:41.000Z,6.8
2023-03-29T06:19:57.000Z,6.8
2023-03-29T06:21:13.000Z,6.8
2023-03-29T06:22:29.000Z,6.9
2023-03-29T06:23:45.000Z,6.9
2023-03-29T06:25:01.000Z,7
2023-03-29T06:26:18.000Z,7
2023-03-29T06:27:34.000Z,7
2023-03-29T06:28:50.000Z,7
2023-03-29T06:30:06.000Z,7
2023-03-29T06:31:23.000Z,7.1
2023-03-29T06:32:39.000Z,7
2023-03-29T06:33:55.000Z,7
2023-03-29T06:35:11.000Z,7.1
2023-03-29T06:36:27.000Z,7.1
2023-03-29T06:37:43.000Z,7.1
2023-03-29T06:38:59.000Z,7.1
2023-03-29T06:40:15.000Z,7.2
2023-03-29T06:41:31.000Z,7.2
2023-03-29T06:42:47.000Z,7.2
2023-03-29T06:44:02.000Z,7.2
2023-03-29T06:45:18.000Z,7.3
2023-03-29T06:46:34.000Z,7.2
2023-03-29T06:47:51.000Z,7.2
2023-03-29T06:49:07.000Z,7.2
2023-03-29T06:50:23.000Z,7.2
2023-03-29T06:52:56.000Z,7.4
2023-03-29T06:54:12.000Z,7.4
2023-03-29T06:55:28.000Z,7.4
2023-03-29T06:56:44.000Z,7.4
2023-03-29T06:58:01.000Z,7.4
2023-03-29T06:59:17.000Z,7.5
2023-03-29T07:00:32.000Z,7.5
2023-03-29T07:01:48.000Z,7.5
2023-03-29T07:04:21.000Z,7.7
2023-03-29T07:05:36.000Z,7.7
2023-03-29T07:06:51.000Z,7.7
2023-03-29T07:08:07.000Z,7.6
2023-03-29T07:09:24.000Z,7.6
2023-03-29T07:10:40.000Z,7.7
2023-03-29T07:11:56.000Z,7.7
2023-03-29T07:13:12.000Z,7.8
2023-03-29T07:14:29.000Z,7.8
2023-03-29T07:17:01.000Z,7.7
2023-03-29T07:18:17.000Z,7.7
2023-03-29T07:19:34.000Z,7.7
2023-03-29T07:20:50.000Z,7.7
2023-03-29T07:22:06.000Z,7.7
2023-03-29T07:24:38.000Z,7.7
2023-03-29T07:25:53.000Z,7.7
2023-03-29T07:27:08.000Z,7.8
2023-03-29T07:28:24.000Z,7.8
2023-03-29T07:29:41.000Z,7.8
2023-03-29T07:32:13.000Z,7.9
2023-03-29T07:33:29.000Z,7.9
2023-03-29T07:34:45.000Z,7.9
2023-03-29T07:36:02.000Z,8
2023-03-29T07:37:18.000Z,8
2023-03-29T07:38:34.000Z,8
2023-03-29T07:39:50.000Z,8
2023-03-29T07:41:07.000Z,8.1
2023-03-29T07:42:23.000Z,8.1
2023-03-29T07:44:54.000Z,8.1
2023-03-29T07:46:11.000Z,8.2
2023-03-29T07:47:27.000Z,8.2
2023-03-29T07:48:43.000Z,8.3
2023-03-29T07:49:59.000Z,8.3
2023-03-29T07:51:16.000Z,8.3
2023-03-29T07:52:32.000Z,8.3
2023-03-29T07:53:48.000Z,8.3
2023-03-29T07:55:04.000Z,8.4
2023-03-29T07:56:20.000Z,8.5
2023-03-29T07:57:37.000Z,8.6
2023-03-29T07:58:52.000Z,8.6
2023-03-29T08:00:07.000Z,8.6
2023-03-29T08:01:23.000Z,8.6
2023-03-29T08:02:40.000Z,8.8
2023-03-29T08:03:56.000Z,8.8
2023-03-29T08:05:12.000Z,8.9
2023-03-29T08:06:28.000Z,9
2023-03-29T08:07:45.000Z,8.9
2023-03-29T08:09:01.000Z,9
2023-03-29T08:10:17.000Z,9.1
2023-03-29T08:11:33.000Z,9.2
2023-03-29T08:12:49.000Z,9.3
2023-03-29T08:14:04.000Z,9.4
2023-03-29T08:15:20.000Z,9.4
2023-03-29T08:16:36.000Z,9.5
2023-03-29T08:17:53.000Z,9.5
2023-03-29T08:19:09.000Z,9.5
2023-03-29T08:20:25.000Z,9.5
2023-03-29T08:21:41.000Z,9.6
2023-03-29T08:22:57.000Z,9.7
2023-03-29T08:24:14.000Z,9.8
2023-03-29T08:25:30.000Z,9.9
2023-03-29T08:26:46.000Z,9.9
2023-03-29T08:28:02.000Z,9.9
2023-03-29T08:29:19.000Z,10
2023-03-29T08:30:34.000Z,10
2023-03-29T08:31:50.000Z,10.1
2023-03-29T08:33:06.000Z,10.2
2023-03-29T08:34:23.000Z,10.3
2023-03-29T08:35:39.000Z,10.4
2023-03-29T08:36:55.547Z,10.4
2023-03-29T08:38:11.000Z,10.4
2023-03-29T08:39:28.000Z,10.5
2023-03-29T08:40:44.000Z,10.5
2023-03-29T08:42:00.000Z,10.5
2023-03-29T08:43:16.000Z,10.6
2023-03-29T08:44:32.000Z,10.6
2023-03-29T08:45:49.000Z,10.5
2023-03-29T08:47:04.000Z,10.4
2023-03-29T08:48:20.000Z,10.3
2023-03-29T08:49:36.000Z,10.5
2023-03-29T08:50:53.000Z,10.5
2023-03-29T08:52:09.000Z,10.5
2023-03-29T08:53:25.000Z,10.6
2023-03-29T08:55:58.000Z,10.9
2023-03-29T08:57:14.000Z,10.9
2023-03-29T08:58:30.000Z,10.8
2023-03-29T08:59:46.000Z,10.8
2023-03-29T09:01:03.000Z,10.8
2023-03-29T09:02:19.000Z,10.9
2023-03-29T09:03:34.000Z,11.1
2023-03-29T09:04:50.000Z,11.1
2023-03-29T09:06:06.000Z,11.2
2023-03-29T09:07:23.000Z,11.3
2023-03-29T09:08:39.000Z,11.3
2023-03-29T09:09:55.000Z,11.3
2023-03-29T09:11:11.000Z,11.3
2023-03-29T09:12:28.000Z,11.4
2023-03-29T09:13:44.000Z,11.4
2023-03-29T09:15:00.000Z,11.4
2023-03-29T09:16:16.000Z,11.3
2023-03-29T09:17:33.000Z,11.3
2023-03-29T09:18:49.000Z,11.1
2023-03-29T09:20:04.000Z,11
2023-03-29T09:21:20.000Z,11
2023-03-29T09:22:37.000Z,11.1
2023-03-29T09:23:53.000Z,11.1
2023-03-29T09:25:09.000Z,11.2
2023-03-29T09:26:25.000Z,11.2
2023-03-29T09:27:41.000Z,11.2
2023-03-29T09:28:58.000Z,11.3
2023-03-29T09:30:14.000Z,11.3
2023-03-29T09:31:30.000Z,11.3
2023-03-29T09:32:46.000Z,11.4
2023-03-29T09:34:03.000Z,11.4
2023-03-29T09:35:19.000Z,11.3
2023-03-29T09:36:35.000Z,11.3
2023-03-29T09:37:50.000Z,11.3
2023-03-29T09:39:07.000Z,11.3
2023-03-29T09:41:39.000Z,11.6
2023-03-29T09:42:55.000Z,11.6
2023-03-29T09:44:12.000Z,11.7
2023-03-29T09:45:28.000Z,11.5
2023-03-29T09:46:44.000Z,11.4
2023-03-29T09:48:00.000Z,11.3
2023-03-29T09:49:16.000Z,11.2
2023-03-29T09:50:33.000Z,11.1
2023-03-29T09:51:49.000Z,10.9
2023-03-29T09:53:05.000Z,10.9
2023-03-29T09:54:20.000Z,10.9
2023-03-29T09:55:37.000Z,10.9
2023-03-29T09:56:53.000Z,10.9
2023-03-29T09:58:09.000Z,10.9
2023-03-29T09:59:25.000Z,10.9
2023-03-29T10:00:42.000Z,10.9
2023-03-29T10:01:58.000Z,10.9
2023-03-29T10:03:14.000Z,11
2023-03-29T10:04:30.000Z,11
2023-03-29T10:05:47.000Z,11
2023-03-29T10:07:03.000Z,11.1
2023-03-29T10:08:19.000Z,11
2023-03-29T10:09:35.000Z,11
2023-03-29T10:10:50.000Z,11.2
2023-03-29T10:12:07.000Z,11.3
2023-03-29T10:13:23.000Z,11.4
2023-03-29T10:14:39.000Z,11.4
2023-03-29T10:15:55.000Z,11.4
2023-03-29T10:17:12.000Z,11.6
2023-03-29T10:18:28.000Z,11.4
2023-03-29T10:19:44.000Z,11.3
2023-03-29T10:21:00.000Z,11.4
2023-03-29T10:22:17.000Z,11.4
2023-03-29T10:24:49.000Z,11.1
2023-03-29T10:26:05.000Z,11.1
2023-03-29T10:27:21.000Z,11.2
2023-03-29T10:28:37.000Z,11.4
2023-03-29T10:29:53.000Z,11.3
2023-03-29T10:31:09.000Z,11.2
2023-03-29T10:32:25.000Z,11.2
2023-03-29T10:33:41.000Z,11.1
2023-03-29T10:34:56.000Z,11.2
2023-03-29T10:36:11.000Z,11.3
2023-03-29T10:37:27.000Z,11.1
2023-03-29T10:38:44.000Z,10.9
2023-03-29T10:40:00.000Z,10.9
2023-03-29T10:41:16.000Z,11
2023-03-29T10:42:32.000Z,11
2023-03-29T10:43:49.000Z,11
2023-03-29T10:45:05.000Z,10.9
2023-03-29T10:46:20.000Z,11
2023-03-29T10:47:35.000Z,11
2023-03-29T10:48:52.000Z,11
2023-03-29T10:50:08.000Z,11
2023-03-29T10:51:24.000Z,11.1
2023-03-29T10:52:40.000Z,11.1
2023-03-29T10:53:57.000Z,11.2
2023-03-29T10:55:13.000Z,11.3
2023-03-29T10:56:29.000Z,11.3
2023-03-29T10:59:01.000Z,11.4
2023-03-29T11:00:18.000Z,11.5
2023-03-29T11:01:34.000Z,11.5
2023-03-29T11:02:50.000Z,11.6
2023-03-29T11:04:05.000Z,11.5
2023-03-29T11:05:22.000Z,11.5
2023-03-29T11:06:38.000Z,11.4
2023-03-29T11:07:54.000Z,11.4
2023-03-29T11:09:10.000Z,11.5
2023-03-29T11:10:27.000Z,11.4
2023-03-29T11:11:43.000Z,11.2
2023-03-29T11:12:59.000Z,11.2
2023-03-29T11:14:15.000Z,11.1
2023-03-29T11:15:32.000Z,11.2
2023-03-29T11:16:48.000Z,11.1
2023-03-29T11:18:04.000Z,11
2023-03-29T11:19:20.000Z,11
2023-03-29T11:20:36.000Z,11.1
2023-03-29T11:21:52.000Z,11.2
2023-03-29T11:23:08.000Z,11.4
2023-03-29T11:24:24.000Z,11.6
2023-03-29T11:25:40.000Z,11.5
2023-03-29T11:26:57.000Z,11.5
2023-03-29T11:28:13.000Z,11.5
2023-03-29T11:29:29.000Z,11.4
2023-03-29T11:30:45.000Z,11.6
2023-03-29T11:32:02.000Z,11.7
2023-03-29T11:33:18.000Z,11.9
2023-03-29T11:34:34.000Z,11.8
2023-03-29T11:35:50.000Z,11.8
2023-03-29T11:37:07.000Z,11.9
2023-03-29T11:38:22.000Z,12
2023-03-29T11:39:38.000Z,12
2023-03-29T11:40:54.000Z,12.1
2023-03-29T11:42:10.000Z,12.3
2023-03-29T11:43:27.000Z,12.4
2023-03-29T11:44:43.000Z,12.3
2023-03-29T11:45:59.000Z,12.4
2023-03-29T11:47:15.000Z,12.4
2023-03-29T11:48:32.000Z,12.3
2023-03-29T11:49:48.000Z,12.4
2023-03-29T11:51:04.000Z,12.3
2023-03-29T11:52:20.000Z,12.3
2023-03-29T11:53:37.000Z,12.5
2023-03-29T11:54:52.000Z,12.4
2023-03-29T11:56:08.000Z,12.4
2023-03-29T11:57:24.000Z,12.3
2023-03-29T11:58:41.000Z,12.3
2023-03-29T11:59:57.000Z,12.3
2023-03-29T12:01:13.000Z,12.2
2023-03-29T12:02:29.000Z,12.2
2023-03-29T12:03:45.000Z,12.3
2023-03-29T12:05:02.000Z,12.2
2023-03-29T12:06:18.000Z,12.2
2023-03-29T12:07:34.000Z,12.2
2023-03-29T12:08:50.000Z,12.3
2023-03-29T12:10:07.000Z,12.4
2023-03-29T12:11:22.000Z,12.4
2023-03-29T12:12:38.000Z,12.4
2023-03-29T12:13:54.000Z,12.5
2023-03-29T12:15:11.000Z,12.5
2023-03-29T12:16:27.000Z,12.4
2023-03-29T12:17:43.000Z,12.4
2023-03-29T12:18:59.000Z,12.4
2023-03-29T12:20:16.000Z,12.5
2023-03-29T12:21:32.000Z,12.6
2023-03-29T12:22:48.000Z,12.6
2023-03-29T12:24:04.000Z,12.6
2023-03-29T12:25:20.000Z,12.6
2023-03-29T12:26:37.000Z,12.4
2023-03-29T12:27:52.000Z,12.4
2023-03-29T12:29:08.000Z,12.3
2023-03-29T12:30:24.000Z,12.2
2023-03-29T12:31:41.000Z,12.2
2023-03-29T12:32:57.000Z,12.3
2023-03-29T12:34:13.000Z,12.3
2023-03-29T12:35:29.000Z,12.3
2023-03-29T12:36:46.000Z,12.3
2023-03-29T12:38:02.000Z,12.4
2023-03-29T12:39:18.000Z,12.4
2023-03-29T12:41:51.000Z,12.4
2023-03-29T12:43:07.000Z,12.3
2023-03-29T12:44:23.000Z,12.2
2023-03-29T12:45:38.000Z,12.1
2023-03-29T12:46:54.000Z,12.1
2023-03-29T12:48:11.000Z,12
2023-03-29T12:49:27.000Z,11.9
2023-03-29T12:50:43.000Z,11.9
2023-03-29T12:51:59.000Z,11.9
2023-03-29T12:53:16.000Z,12
2023-03-29T12:54:32.000Z,12.1
2023-03-29T12:55:48.000Z,12.3
2023-03-29T12:57:04.000Z,12.4
2023-03-29T12:58:21.000Z,12.4
2023-03-29T12:59:37.000Z,12.5
2023-03-29T13:00:53.000Z,12.4
2023-03-29T13:02:08.000Z,12.3
2023-03-29T13:03:25.000Z,12.2
2023-03-29T13:04:41.000Z,12.2
2023-03-29T13:05:57.000Z,12.1
2023-03-29T13:07:13.000Z,12.1
2023-03-29T13:08:29.000Z,12.2
2023-03-29T13:09:46.000Z,12.3
2023-03-29T13:11:02.000Z,12.4
2023-03-29T13:12:18.000Z,12.5
2023-03-29T13:13:34.000Z,12.4
2023-03-29T13:14:51.000Z,12.4
2023-03-29T13:16:07.000Z,12.5
2023-03-29T13:17:23.000Z,12.6
2023-03-29T13:18:38.000Z,12.6
2023-03-29T13:19:55.000Z,12.7
2023-03-29T13:21:11.000Z,12.8
2023-03-29T13:22:27.000Z,12.9
2023-03-29T13:23:43.000Z,13
2023-03-29T13:25:00.000Z,13
2023-03-29T13:26:16.000Z,12.9
2023-03-29T13:27:32.000Z,12.9
2023-03-29T13:30:04.000Z,13
2023-03-29T13:31:21.000Z,13
2023-03-29T13:32:37.000Z,12.9
2023-03-29T13:33:53.000Z,12.9
2023-03-29T13:35:08.000Z,12.9
2023-03-29T13:36:25.000Z,12.7
2023-03-29T13:37:41.000Z,12.7
2023-03-29T13:40:13.000Z,12.5
2023-03-29T13:41:30.000Z,12.5
2023-03-29T13:42:46.000Z,12.5
2023-03-29T13:44:02.000Z,12.6
2023-03-29T13:45:18.000Z,12.6
2023-03-29T13:46:35.000Z,12.5
2023-03-29T13:47:51.000Z,12.6
2023-03-29T13:49:07.000Z,12.7
2023-03-29T13:50:23.000Z,12.9
2023-03-29T13:51:38.000Z,13
2023-03-29T13:52:55.000Z,13.2
2023-03-29T13:54:11.000Z,13.4
2023-03-29T13:55:27.000Z,13.6
2023-03-29T13:56:43.000Z,13.8
2023-03-29T13:58:00.000Z,13.8
2023-03-29T13:59:16.000Z,13.9
2023-03-29T14:00:32.000Z,14
2023-03-29T14:01:48.000Z,14.2
2023-03-29T14:03:05.000Z,14.4
2023-03-29T14:04:21.000Z,14.5
2023-03-29T14:05:37.000Z,14.4
2023-03-29T14:06:53.000Z,14.6
2023-03-29T14:08:09.000Z,14.9
2023-03-29T14:09:25.000Z,15
2023-03-29T14:10:41.000Z,14.9
2023-03-29T14:11:57.000Z,15
2023-03-29T14:13:13.000Z,15.1
2023-03-29T14:14:30.000Z,15.2
2023-03-29T14:15:46.000Z,14.9
2023-03-29T14:17:02.000Z,15
2023-03-29T14:18:18.000Z,14.9
2023-03-29T14:19:35.000Z,14.9
2023-03-29T14:20:51.000Z,14.7
2023-03-29T14:23:23.000Z,14.5
2023-03-29T14:24:39.000Z,14.4
2023-03-29T14:25:55.000Z,14.4
2023-03-29T14:27:11.000Z,14.6
2023-03-29T14:28:27.000Z,14.8
2023-03-29T14:29:44.000Z,14.9
2023-03-29T14:31:00.000Z,14.9
2023-03-29T14:32:16.000Z,15
2023-03-29T14:33:32.000Z,15.2
2023-03-29T14:34:48.000Z,15.1
2023-03-29T14:36:05.000Z,15.1
2023-03-29T14:37:21.000Z,15.1
2023-03-29T14:38:37.000Z,15.1
2023-03-29T14:39:53.000Z,15.2
2023-03-29T14:41:09.000Z,15.1
2023-03-29T14:42:25.000Z,14.9
2023-03-29T14:43:41.000Z,15
2023-03-29T14:44:57.000Z,14.9
2023-03-29T14:46:14.000Z,14.9
2023-03-29T14:47:30.000Z,14.8
2023-03-29T14:48:46.000Z,14.8
2023-03-29T14:50:02.000Z,14.7
2023-03-29T14:51:18.000Z,14.8
2023-03-29T14:52:34.000Z,14.8
2023-03-29T14:53:50.000Z,14.9
2023-03-29T14:55:06.000Z,15
2023-03-29T14:56:22.000Z,15.1
2023-03-29T14:57:39.000Z,15.3
2023-03-29T14:58:55.000Z,15.4
2023-03-29T15:00:11.000Z,15.5
2023-03-29T15:01:27.000Z,15.5
2023-03-29T15:02:44.000Z,15.5
2023-03-29T15:04:00.000Z,15.5
2023-03-29T15:05:16.000Z,15.7
2023-03-29T15:06:32.000Z,15.7
2023-03-29T15:07:48.000Z,15.7
2023-03-29T15:09:04.000Z,15.6
2023-03-29T15:10:20.000Z,15.6
2023-03-29T15:11:36.000Z,15.4
2023-03-29T15:12:53.000Z,15.3
2023-03-29T15:14:09.000Z,15.2
2023-03-29T15:15:25.000Z,15.1
2023-03-29T15:16:41.000Z,15.1
2023-03-29T15:17:57.000Z,15
2023-03-29T15:19:14.000Z,14.8
2023-03-29T15:20:30.000Z,14.8
2023-03-29T15:21:46.000Z,14.8
2023-03-29T15:23:02.000Z,14.9
2023-03-29T15:24:18.000Z,14.9
2023-03-29T15:25:34.000Z,14.9
2023-03-29T15:26:50.000Z,15
2023-03-29T15:28:06.000Z,15
2023-03-29T15:29:23.000Z,15
2023-03-29T15:30:39.000Z,15.1
2023-03-29T15:31:55.000Z,15.1
2023-03-29T15:33:11.000Z,15.1
2023-03-29T15:34:28.000Z,15.2
2023-03-29T15:35:44.000Z,15.2
2023-03-29T15:37:00.000Z,15.3
2023-03-29T15:38:16.000Z,15.3
2023-03-29T15:39:32.000Z,15.3
2023-03-29T15:40:48.000Z,15.3
2023-03-29T15:42:04.000Z,15.4
2023-03-29T15:43:20.000Z,15.2
2023-03-29T15:44:36.000Z,15.2
2023-03-29T15:45:53.000Z,15.3
2023-03-29T15:47:09.000Z,15.3
2023-03-29T15:48:25.000Z,15.4
2023-03-29T15:49:41.000Z,15.4
2023-03-29T15:50:58.000Z,15.4
2023-03-29T15:52:14.000Z,15.4
2023-03-29T15:53:30.000Z,15.4
2023-03-29T15:54:46.000Z,15.4
2023-03-29T15:56:03.000Z,15.3
2023-03-29T15:57:18.000Z,15.2
2023-03-29T15:58:34.000Z,15.1
2023-03-29T15:59:50.000Z,15
2023-03-29T16:01:06.000Z,15
2023-03-29T16:02:23.000Z,15
2023-03-29T16:03:39.000Z,15
2023-03-29T16:04:55.000Z,15.1
2023-03-29T16:06:11.000Z,15.1
2023-03-29T16:07:28.000Z,15
2023-03-29T16:08:44.000Z,15.1
2023-03-29T16:10:00.000Z,14.9
2023-03-29T16:11:16.000Z,14.9
2023-03-29T16:12:33.000Z,14.9
2023-03-29T16:13:48.000Z,14.9
2023-03-29T16:15:04.000Z,14.8
2023-03-29T16:16:20.000Z,14.8
2023-03-29T16:17:37.000Z,14.7
2023-03-29T16:18:53.000Z,14.7
2023-03-29T16:20:09.000Z,14.7
2023-03-29T16:22:41.000Z,14.7
2023-03-29T16:23:58.000Z,14.8
2023-03-29T16:25:14.000Z,14.8
2023-03-29T16:26:30.000Z,14.8
2023-03-29T16:27:46.000Z,14.7
2023-03-29T16:29:03.000Z,14.6
2023-03-29T16:30:18.000Z,14.6
2023-03-29T16:31:34.000Z,14.6
2023-03-29T16:32:50.000Z,14.6
2023-03-29T16:34:07.000Z,14.6
2023-03-29T16:35:23.000Z,14.6
2023-03-29T16:36:39.000Z,14.6
2023-03-29T16:37:55.000Z,14.6
2023-03-29T16:39:12.000Z,14.6
2023-03-29T16:40:28.000Z,14.6
2023-03-29T16:41:44.000Z,14.6
2023-03-29T16:43:00.000Z,14.5
2023-03-29T16:44:16.000Z,14.5
2023-03-29T16:45:33.000Z,14.5
2023-03-29T16:46:48.000Z,14.4
2023-03-29T16:48:04.000Z,14.4
2023-03-29T16:49:20.000Z,14.3
2023-03-29T16:50:37.000Z,14.2
2023-03-29T16:51:53.000Z,14.2
2023-03-29T16:53:09.000Z,14.1
2023-03-29T16:54:25.000Z,14
2023-03-29T16:55:42.000Z,14
2023-03-29T16:56:58.000Z,14
2023-03-29T16:58:14.000Z,13.9
2023-03-29T16:59:30.000Z,13.9
2023-03-29T17:00:46.000Z,13.9
2023-03-29T17:02:03.000Z,13.9
2023-03-29T17:03:18.000Z,13.9
2023-03-29T17:04:34.000Z,14
2023-03-29T17:05:50.000Z,14
2023-03-29T17:07:07.000Z,14
2023-03-29T17:08:23.000Z,14
2023-03-29T17:09:39.000Z,14
2023-03-29T17:10:55.000Z,14
2023-03-29T17:12:12.000Z,14
2023-03-29T17:13:28.000Z,13.9
2023-03-29T17:14:44.000Z,13.9
2023-03-29T17:16:00.000Z,13.9
2023-03-29T17:17:17.000Z,13.9
2023-03-29T17:18:33.000Z,13.9
2023-03-29T17:19:48.000Z,13.9
2023-03-29T17:21:04.000Z,13.8
2023-03-29T17:22:21.000Z,13.8
2023-03-29T17:23:37.000Z,13.8
2023-03-29T17:26:09.000Z,13.8
2023-03-29T17:27:25.000Z,13.8
2023-03-29T17:28:42.000Z,13.7
2023-03-29T17:29:58.000Z,13.8
2023-03-29T17:31:14.000Z,13.7
2023-03-29T17:32:30.000Z,13.7
2023-03-29T17:33:47.000Z,13.7
2023-03-29T17:35:03.000Z,13.7
2023-03-29T17:36:18.000Z,13.7
2023-03-29T17:37:34.000Z,13.7
2023-03-29T17:38:51.000Z,13.7
2023-03-29T17:40:07.000Z,13.7
2023-03-29T17:41:23.000Z,13.7
2023-03-29T17:42:39.000Z,13.6
2023-03-29T17:43:55.000Z,13.6
2023-03-29T17:45:12.000Z,13.5
2023-03-29T17:46:28.000Z,13.5